createdAt,value
2023-03-26T00:02:56.638Z,37.68
2023-03-26T00:06:56.667Z,36.92
2023-03-26T00:10:56.751Z,37.36
2023-03-26T00:14:56.848Z,38.94
2023-03-26T00:18:56.864Z,38.47
2023-03-26T00:22:56.947Z,36.55
2023-03-26T00:26:57.005Z,37.20
2023-03-26T00:30:57.092Z,37.00
2023-03-26T00:34:57.196Z,36.82
2023-03-26T00:38:57.330Z,37.44
2023-03-26T00:42:57.452Z,36.54
2023-03-26T00:46:57.626Z,37.83
2023-03-26T00:50:57.830Z,38.93
2023-03-26T00:54:57.954Z,39.22
2023-03-26T00:58:58.130Z,38.75
2023-03-26T01:02:58.377Z,39.30
2023-03-26T01:06:58.469Z,39.79
2023-03-26T01:10:58.665Z,39.55
2023-03-26T01:14:58.798Z,39.25
2023-03-26T01:18:58.990Z,39.52
2023-03-26T01:22:59.145Z,39.90
2023-03-26T01:26:59.108Z,39.64
2023-03-26T01:30:59.136Z,39.98
2023-03-26T01:34:59.046Z,39.96
2023-03-26T01:38:59.396Z,39.97
2023-03-26T01:42:58.977Z,39.63
2023-03-26T01:46:58.956Z,40.02
2023-03-26T01:50:58.936Z,39.59
2023-03-26T01:54:58.853Z,38.66
2023-03-26T01:58:58.814Z,38.72
2023-03-26T02:02:58.843Z,37.95
2023-03-26T02:06:58.761Z,39.27
2023-03-26T02:10:58.718Z,38.16
2023-03-26T02:14:58.680Z,39.31
2023-03-26T02:18:58.632Z,39.09
2023-03-26T02:22:58.609Z,38.15
2023-03-26T02:26:58.584Z,37.60
2023-03-26T02:30:58.520Z,38.30
2023-03-26T02:34:58.498Z,38.61
2023-03-26T02:38:58.436Z,39.10
2023-03-26T02:42:58.436Z,39.40
2023-03-26T02:46:58.459Z,38.49
2023-03-26T02:50:58.569Z,38.86
2023-03-26T02:54:58.732Z,38.15
2023-03-26T02:58:58.856Z,38.90
2023-03-26T03:02:59.125Z,39.67
2023-03-26T03:06:59.102Z,39.46
2023-03-26T03:10:59.064Z,39.50
2023-03-26T03:14:59.022Z,40.37
2023-03-26T03:18:58.994Z,40.47
2023-03-26T03:22:58.967Z,40.35
2023-03-26T03:26:58.932Z,40.79
2023-03-26T03:30:59.044Z,40.89
2023-03-26T03:34:58.856Z,40.49
2023-03-26T03:38:58.809Z,40.97
2023-03-26T03:42:58.764Z,40.96
2023-03-26T03:46:58.754Z,40.99
2023-03-26T03:50:58.721Z,40.71
2023-03-26T03:54:58.822Z,41.07
2023-03-26T03:58:58.807Z,41.49
2023-03-26T04:02:58.838Z,41.44
2023-03-26T04:06:58.738Z,41.50
2023-03-26T04:10:58.680Z,40.84
2023-03-26T04:14:58.663Z,41.14
2023-03-26T04:18:58.632Z,41.06
2023-03-26T04:22:58.563Z,41.74
2023-03-26T04:26:58.541Z,41.83
2023-03-26T04:30:58.548Z,41.81
2023-03-26T04:34:58.478Z,42.24
2023-03-26T04:38:58.595Z,41.88
2023-03-26T04:42:58.514Z,41.20
2023-03-26T04:46:58.540Z,40.27
2023-03-26T04:50:58.438Z,40.47
2023-03-26T04:54:58.406Z,40.80
2023-03-26T04:58:58.346Z,40.75
2023-03-26T05:02:58.364Z,40.33
2023-03-26T05:06:58.335Z,40.12
2023-03-26T05:10:58.263Z,39.70
2023-03-26T05:14:58.208Z,39.94
2023-03-26T05:18:58.291Z,39.78
2023-03-26T05:22:58.201Z,39.69
2023-03-26T05:26:58.165Z,39.78
2023-03-26T05:30:58.139Z,39.52
2023-03-26T05:34:58.130Z,39.86
2023-03-26T05:38:58.068Z,39.76
2023-03-26T05:42:58.028Z,39.57
2023-03-26T05:46:57.984Z,39.56
2023-03-26T05:50:58.008Z,39.09
2023-03-26T05:54:57.910Z,38.92
2023-03-26T05:58:57.886Z,39.04
2023-03-26T06:02:58.143Z,38.89
2023-03-26T06:06:58.242Z,39.09
2023-03-26T06:10:58.504Z,39.59
2023-03-26T06:14:58.655Z,38.32
2023-03-26T06:18:58.934Z,37.99
2023-03-26T06:22:58.842Z,38.52
2023-03-26T06:26:58.801Z,39.18
2023-03-26T06:30:58.764Z,38.54
2023-03-26T06:34:58.721Z,38.63
2023-03-26T06:38:58.684Z,38.38
2023-03-26T06:43:08.226Z,37.80
2023-03-26T06:46:59.647Z,38.76
2023-03-26T06:50:58.580Z,38.84
2023-03-26T06:54:58.539Z,38.25
2023-03-26T06:58:58.522Z,38.42
2023-03-26T07:02:58.575Z,38.38
2023-03-26T07:06:58.544Z,38.59
2023-03-26T07:10:58.578Z,38.24
2023-03-26T07:15:00.398Z,38.11
2023-03-26T07:18:58.705Z,37.90
2023-03-26T07:22:58.667Z,37.65
2023-03-26T07:26:58.663Z,36.95
2023-03-26T07:30:58.587Z,37.93
2023-03-26T07:34:58.545Z,37.54
2023-03-26T07:38:58.509Z,37.39
2023-03-26T07:42:58.470Z,37.06
2023-03-26T07:46:58.481Z,37.07
2023-03-26T07:50:58.416Z,36.79
2023-03-26T07:54:58.377Z,36.72
2023-03-26T07:58:58.347Z,37.25
2023-03-26T08:02:58.405Z,36.71
2023-03-26T08:06:58.269Z,36.96
2023-03-26T08:10:58.233Z,35.98
2023-03-26T08:14:58.370Z,35.66
2023-03-26T08:18:58.537Z,36.22
2023-03-26T08:22:58.641Z,35.37
2023-03-26T08:26:58.669Z,36.29
2023-03-26T08:30:58.781Z,35.52
2023-03-26T08:34:58.935Z,34.93
2023-03-26T08:38:58.908Z,34.57
2023-03-26T08:42:58.854Z,35.00
2023-03-26T08:46:58.835Z,35.29
2023-03-26T08:50:58.783Z,34.18
2023-03-26T08:54:58.765Z,33.73
2023-03-26T08:58:58.722Z,34.27
2023-03-26T09:02:58.747Z,33.72
2023-03-26T09:06:58.657Z,33.80
2023-03-26T09:10:58.609Z,35.12
2023-03-26T09:14:58.571Z,34.24
2023-03-26T09:18:58.646Z,34.99
2023-03-26T09:22:58.634Z,36.02
2023-03-26T09:26:58.596Z,35.01
2023-03-26T09:30:58.542Z,34.77
2023-03-26T09:34:58.529Z,34.73
2023-03-26T09:38:58.476Z,33.46
2023-03-26T09:42:58.439Z,33.96
2023-03-26T09:46:58.402Z,34.29
2023-03-26T09:50:58.694Z,33.28
2023-03-26T09:54:58.330Z,34.03
2023-03-26T09:58:58.280Z,32.62
2023-03-26T10:02:58.311Z,33.38
2023-03-26T10:06:58.412Z,33.04
2023-03-26T10:10:58.547Z,32.58
2023-03-26T10:14:58.623Z,32.52
2023-03-26T10:18:58.716Z,32.39
2023-03-26T10:22:58.839Z,33.03
2023-03-26T10:27:09.940Z,32.98
2023-03-26T10:30:59.913Z,33.94
2023-03-26T10:34:58.877Z,33.98
2023-03-26T10:38:58.821Z,34.42
2023-03-26T10:42:58.769Z,33.33
2023-03-26T10:46:58.830Z,34.00
2023-03-26T10:50:58.909Z,32.93
2023-03-26T10:54:58.958Z,33.24
2023-03-26T10:58:59.051Z,34.16
2023-03-26T11:02:59.159Z,33.30
2023-03-26T11:06:59.180Z,32.70
2023-03-26T11:10:59.222Z,33.26
2023-03-26T11:14:59.197Z,33.34
2023-03-26T11:18:59.321Z,33.39
2023-03-26T11:23:40.991Z,33.51
2023-03-26T11:27:40.947Z,33.90
2023-03-26T11:31:40.935Z,34.40
2023-03-26T11:35:41.736Z,34.32
2023-03-26T11:39:40.824Z,34.35
2023-03-26T11:43:40.785Z,33.76
2023-03-26T11:47:40.760Z,34.39
2023-03-26T11:51:40.720Z,34.38
2023-03-26T11:55:40.785Z,33.19
2023-03-26T11:59:53.310Z,33.64
2023-03-26T12:03:41.961Z,33.55
2023-03-26T12:07:40.912Z,33.80
2023-03-26T12:11:40.888Z,32.83
2023-03-26T12:15:40.992Z,33.39
2023-03-26T12:19:41.155Z,33.74
2023-03-26T12:23:41.273Z,33.81
2023-03-26T12:27:41.398Z,33.18
2023-03-26T12:31:41.505Z,34.22
2023-03-26T12:35:41.649Z,34.06
2023-03-26T12:40:06.646Z,36.06
2023-03-26T12:44:50.059Z,35.03
2023-03-26T12:47:57.630Z,36.42
2023-03-26T12:51:42.712Z,37.15
2023-03-26T12:55:41.657Z,38.58
2023-03-26T12:59:41.645Z,38.53
2023-03-26T13:03:41.616Z,39.21
2023-03-26T13:07:41.589Z,39.46
2023-03-26T13:13:56.936Z,38.67
2023-03-26T13:17:56.963Z,38.16
2023-03-26T13:21:56.884Z,38.46
2023-03-26T13:25:56.819Z,39.70
2023-03-26T13:29:56.932Z,39.90
2023-03-26T13:33:56.782Z,40.38
2023-03-26T13:37:56.739Z,41.27
2023-03-26T13:41:56.665Z,40.56
2023-03-26T13:45:56.680Z,40.75
2023-03-26T13:49:56.599Z,41.28
2023-03-26T13:53:56.563Z,41.27
2023-03-26T13:57:56.532Z,41.06
2023-03-26T14:01:56.522Z,42.04
2023-03-26T14:05:56.655Z,40.20
2023-03-26T14:09:56.895Z,40.33
2023-03-26T14:13:57.025Z,40.61
2023-03-26T14:17:57.206Z,39.97
2023-03-26T14:21:57.152Z,41.20
2023-03-26T14:25:57.124Z,43.03
2023-03-26T14:29:57.695Z,42.67
2023-03-26T14:33:57.035Z,43.02
2023-03-26T14:37:57.013Z,43.39
2023-03-26T14:41:56.973Z,42.71
2023-03-26T14:45:56.923Z,42.89
2023-03-26T14:49:56.895Z,43.90
2023-03-26T14:53:56.849Z,43.04
2023-03-26T14:57:56.817Z,44.84
2023-03-26T15:01:56.851Z,46.83
2023-03-26T15:05:56.733Z,47.60
2023-03-26T15:09:56.698Z,47.75
2023-03-26T15:13:56.693Z,46.55
2023-03-26T15:17:56.677Z,47.11
2023-03-26T15:21:56.847Z,47.59
2023-03-26T15:25:57.023Z,45.36
2023-03-26T15:29:57.205Z,44.95
2023-03-26T15:33:57.392Z,45.61
2023-03-26T15:37:57.604Z,46.14
2023-03-26T15:41:57.846Z,47.07
2023-03-26T15:45:58.100Z,47.22
2023-03-26T15:49:58.232Z,47.51
2023-03-26T15:53:58.405Z,47.62
2023-03-26T15:57:58.619Z,47.72
2023-03-26T16:01:58.618Z,47.81
2023-03-26T16:05:58.548Z,47.91
2023-03-26T16:09:58.556Z,47.21
2023-03-26T16:13:58.450Z,46.58
2023-03-26T16:17:58.457Z,47.24
2023-03-26T16:21:58.380Z,47.24
2023-03-26T16:25:58.360Z,47.12
2023-03-26T16:29:58.325Z,47.73
2023-03-26T16:33:58.272Z,47.72
2023-03-26T16:37:58.250Z,47.77
2023-03-26T16:42:06.453Z,48.05
2023-03-26T16:45:59.310Z,48.24
2023-03-26T16:50:08.603Z,48.04
2023-03-26T16:53:59.228Z,48.23
2023-03-26T16:57:58.242Z,47.91
2023-03-26T17:01:58.502Z,48.05
2023-03-26T17:05:58.645Z,47.51
2023-03-26T17:09:58.616Z,47.83
2023-03-26T17:13:58.585Z,47.95
2023-03-26T17:17:58.613Z,48.61
2023-03-26T17:21:58.489Z,48.36
2023-03-26T17:25:58.476Z,48.26
2023-03-26T17:29:58.433Z,48.08
2023-03-26T17:33:58.392Z,49.13
2023-03-26T17:37:58.360Z,48.86
2023-03-26T17:41:58.323Z,49.06
2023-03-26T17:46:03.333Z,48.26
2023-03-26T17:49:59.285Z,47.76
2023-03-26T17:53:58.213Z,47.51
2023-03-26T17:57:58.200Z,47.02
2023-03-26T18:01:58.129Z,47.30
2023-03-26T18:05:58.288Z,47.37
2023-03-26T18:09:58.044Z,48.25
2023-03-26T18:13:58.084Z,49.10
2023-03-26T18:17:58.208Z,50.03
2023-03-26T18:21:58.184Z,47.17
2023-03-26T18:25:58.265Z,45.35
2023-03-26T18:30:02.825Z,45.40
2023-03-26T18:33:58.361Z,48.53
2023-03-26T18:37:58.319Z,50.15
2023-03-26T18:41:58.326Z,50.17
2023-03-26T18:45:58.517Z,50.23
2023-03-26T18:49:58.610Z,50.43
2023-03-26T18:53:58.690Z,49.75
2023-03-26T18:57:58.759Z,49.32
2023-03-26T19:01:58.874Z,47.91
2023-03-26T19:05:58.785Z,46.21
2023-03-26T19:09:58.822Z,46.69
2023-03-26T19:13:58.864Z,46.52
2023-03-26T19:17:58.928Z,48.28
2023-03-26T19:21:59.731Z,49.04
2023-03-26T19:25:58.930Z,48.87
2023-03-26T19:29:59.055Z,48.10
2023-03-26T19:33:59.192Z,47.07
2023-03-26T19:37:59.299Z,46.27
2023-03-26T19:41:59.334Z,45.97
2023-03-26T19:46:01.216Z,45.86
2023-03-26T19:49:59.562Z,45.70
2023-03-26T19:53:59.708Z,45.38
2023-03-26T19:57:59.871Z,45.07
2023-03-26T20:02:00.066Z,44.66
2023-03-26T20:06:00.191Z,44.05
2023-03-26T20:10:01.142Z,43.33
2023-03-26T20:14:00.518Z,43.74
2023-03-26T20:18:00.784Z,43.70
2023-03-26T20:22:00.825Z,43.34
2023-03-26T20:26:00.891Z,43.36
2023-03-26T20:30:00.963Z,43.37
2023-03-26T20:34:01.101Z,42.76
2023-03-26T20:38:01.218Z,42.53
2023-03-26T20:42:01.290Z,41.19
2023-03-26T20:46:01.402Z,40.55
2023-03-26T20:50:01.501Z,41.68
2023-03-26T20:54:01.662Z,41.60
2023-03-26T20:58:01.832Z,41.15
2023-03-26T21:02:02.059Z,41.23
2023-03-26T21:06:02.177Z,41.21
2023-03-26T21:10:02.324Z,41.78
2023-03-26T21:14:02.276Z,41.58
2023-03-26T21:18:02.284Z,40.92
2023-03-26T21:22:02.230Z,40.89
2023-03-26T21:26:02.170Z,40.67
2023-03-26T21:30:02.143Z,41.24
2023-03-26T21:34:02.094Z,40.85
2023-03-26T21:38:02.051Z,41.44
2023-03-26T21:42:05.292Z,41.59
2023-03-26T21:46:02.028Z,41.65
2023-03-26T21:50:01.968Z,41.72
2023-03-26T21:54:01.915Z,41.53
2023-03-26T21:58:01.856Z,41.40
2023-03-26T22:02:01.838Z,41.38
2023-03-26T22:06:01.791Z,41.20
2023-03-26T22:10:01.754Z,40.21
2023-03-26T22:14:01.779Z,38.86
2023-03-26T22:18:01.950Z,38.75
2023-03-26T22:22:01.973Z,38.74
2023-03-26T22:26:02.083Z,38.92
2023-03-26T22:30:02.161Z,39.84
2023-03-26T22:34:02.201Z,39.88
2023-03-26T22:38:02.273Z,40.33
2023-03-26T22:42:02.360Z,40.17
2023-03-26T22:46:02.554Z,40.34
2023-03-26T22:50:02.676Z,40.79
2023-03-26T22:54:02.867Z,41.09
2023-03-26T22:58:03.042Z,40.74
2023-03-26T23:02:03.088Z,40.60
2023-03-26T23:06:03.007Z,40.64
2023-03-26T23:10:02.946Z,40.73
2023-03-26T23:14:02.894Z,40.90
2023-03-26T23:18:02.915Z,41.46
2023-03-26T23:22:02.817Z,40.52
2023-03-26T23:26:02.789Z,40.14
2023-03-26T23:30:02.753Z,41.31
2023-03-26T23:34:02.712Z,40.89
2023-03-26T23:38:02.674Z,41.34
2023-03-26T23:42:02.649Z,41.49
2023-03-26T23:46:02.682Z,41.15
2023-03-26T23:50:02.557Z,40.11
2023-03-26T23:54:02.532Z,39.95
2023-03-26T23:58:02.475Z,40.14
